Time;durP1;ratioP1;P1;durP2;ratioP2;P2;SDS_P1;SDS_P2;PMS_P1;PMS_P2;Temp;Humidity;BMP_temperature;BMP_pressure;BME280_temperature;BME280_humidity;BME280_pressure;Samples;Min_cycle;Max_cycle;Signal;HPM_P1;HPM_P2
2023/08/09 00:02:01;;;;;;;2.47;1.08;;;;;;;12.89;100.00;100401.91;5027198;28;20060;-87
2023/08/09 00:04:28;;;;;;;1.50;0.65;;;;;;;12.90;100.00;100402.78;5032657;28;20034;-87
2023/08/09 00:06:56;;;;;;;1.00;0.70;;;;;;;12.87;100.00;100392.34;5013434;28;20194;-87
2023/08/09 00:09:31;;;;;;;0.90;0.88;;;;;;;12.85;100.00;100394.13;5023044;28;20042;-86
2023/08/09 00:12:03;;;;;;;0.73;0.65;;;;;;;12.83;100.00;100396.78;5016106;28;20050;-87
2023/08/09 00:14:40;;;;;;;0.73;0.73;;;;;;;12.81;100.00;100390.69;5027379;28;20651;-86
2023/08/09 00:17:08;;;;;;;0.88;0.77;;;;;;;12.80;100.00;100383.75;5016706;28;20150;-87
2023/08/09 00:19:36;;;;;;;0.98;0.65;;;;;;;12.82;100.00;100384.56;5031491;28;20045;-88
2023/08/09 00:22:03;;;;;;;1.65;1.00;;;;;;;12.81;100.00;100381.97;4986891;28;20490;-88
2023/08/09 00:24:33;;;;;;;0.52;0.52;;;;;;;12.81;100.00;100388.06;5002839;28;20831;-88
2023/08/09 00:27:02;;;;;;;1.65;0.60;;;;;;;12.81;100.00;100387.22;4997793;28;20050;-87
2023/08/09 00:29:29;;;;;;;4.03;0.60;;;;;;;12.81;100.00;100388.06;5007936;28;20046;-88
2023/08/09 00:31:56;;;;;;;2.17;0.82;;;;;;;12.78;100.00;100380.28;5010597;28;20046;-88
2023/08/09 00:34:24;;;;;;;0.93;0.65;;;;;;;12.75;100.00;100380.34;4994428;28;20052;-86
2023/08/09 00:36:53;;;;;;;2.45;0.60;;;;;;;12.74;100.00;100386.50;5032420;28;20138;-86
2023/08/09 00:39:21;;;;;;;0.50;0.50;;;;;;;12.73;100.00;100398.75;5035694;28;20153;-87
2023/08/09 00:41:47;;;;;;;0.60;0.60;;;;;;;12.74;100.00;100386.50;5028115;28;20434;-89
2023/08/09 00:44:16;;;;;;;1.00;0.82;;;;;;;12.74;100.00;100399.63;4984208;28;20099;-85
2023/08/09 00:46:43;;;;;;;3.58;0.82;;;;;;;12.76;100.00;100397.81;5033647;28;20045;-89
2023/08/09 00:49:10;;;;;;;1.13;0.43;;;;;;;12.74;100.00;100400.47;5010644;28;20038;-86
2023/08/09 00:51:37;;;;;;;1.83;0.70;;;;;;;12.73;100.00;100400.53;5009395;28;20042;-86
2023/08/09 00:54:04;;;;;;;2.38;0.75;;;;;;;12.72;100.00;100401.41;5034119;28;20057;-89
2023/08/09 00:56:33;;;;;;;0.80;0.80;;;;;;;12.66;100.00;100404.16;5011539;28;20049;-88
2023/08/09 00:59:02;;;;;;;1.35;0.98;;;;;;;12.60;100.00;100402.53;5018436;28;20081;-90
2023/08/09 01:01:29;;;;;;;2.50;0.45;;;;;;;12.53;100.00;100393.09;5023047;28;20065;-90
2023/08/09 01:03:56;;;;;;;0.75;0.50;;;;;;;12.44;100.00;100393.25;5012791;28;20053;-89
2023/08/09 01:06:32;;;;;;;0.30;0.30;;;;;;;12.38;100.00;100399.50;5023735;28;20498;-86
2023/08/09 01:09:37;;;;;;;0.45;0.45;;;;;;;12.32;100.00;100390.00;5020058;28;20486;-87
2023/08/09 01:12:10;;;;;;;0.65;0.65;;;;;;;12.29;100.00;100399.69;5000903;28;20042;-89
2023/08/09 01:14:39;;;;;;;;;;;;;;;12.23;100.00;100392.81;5011184;28;20106;-87
2023/08/09 01:17:09;;;;;;;0.65;0.65;;;;;;;12.19;100.00;100394.63;5004367;28;19921;-86
2023/08/09 01:19:35;;;;;;;0.73;0.60;;;;;;;12.20;100.00;100398.09;5027682;28;20173;-87
2023/08/09 01:22:15;;;;;;;0.75;0.65;;;;;;;12.18;100.00;100387.66;5034263;28;20315;-88
2023/08/09 01:24:47;;;;;;;0.85;0.65;;;;;;;12.15;100.00;100400.84;5029998;28;20136;-90
2023/08/09 01:27:14;;;;;;;0.95;0.85;;;;;;;12.11;100.00;100398.28;5027026;28;20111;-87
2023/08/09 01:29:41;;;;;;;1.85;0.50;;;;;;;12.10;100.00;100401.81;5010782;28;20506;-85
2023/08/09 01:32:08;;;;;;;1.13;0.75;;;;;;;12.06;100.00;100399.25;5017923;28;20105;-87
2023/08/09 01:34:37;;;;;;;0.93;0.40;;;;;;;12.05;100.00;100407.16;5004816;28;20069;-88
2023/08/09 01:37:13;;;;;;;1.95;0.68;;;;;;;12.06;100.00;100412.38;5003181;28;20042;-86
2023/08/09 01:39:42;;;;;;;0.93;0.60;;;;;;;12.04;100.00;100421.16;4999676;28;20144;-86
2023/08/09 01:42:13;;;;;;;0.50;0.50;;;;;;;12.02;100.00;100420.31;5023334;28;20053;-86
2023/08/09 01:44:43;;;;;;;1.45;0.60;;;;;;;11.96;100.00;100429.16;5007718;28;20045;-85
2023/08/09 01:47:11;;;;;;;1.85;0.50;;;;;;;11.90;100.00;100427.50;5009129;28;20048;-85
2023/08/09 01:49:46;;;;;;;2.78;0.68;;;;;;;11.84;100.00;100435.47;5009218;28;20065;-86
2023/08/09 01:52:13;;;;;;;0.80;0.80;;;;;;;11.77;100.00;100433.84;5004447;28;20069;-88
2023/08/09 01:54:39;;;;;;;0.35;0.35;;;;;;;11.68;100.00;100440.13;5015566;28;20137;-86
2023/08/09 01:57:06;;;;;;;0.38;0.38;;;;;;;11.56;100.00;100435.97;5024107;28;20136;-87
2023/08/09 01:59:36;;;;;;;0.68;0.68;;;;;;;11.48;100.00;100436.97;5008664;28;20046;-89
2023/08/09 02:02:03;;;;;;;1.10;0.55;;;;;;;11.42;100.00;100430.94;4999781;28;20184;-89
2023/08/09 02:04:33;;;;;;;0.63;0.63;;;;;;;11.36;100.00;100432.78;4991666;28;20045;-87
2023/08/09 02:06:59;;;;;;;1.58;0.77;;;;;;;11.30;100.00;100428.50;4985670;28;20066;-87
2023/08/09 02:09:30;;;;;;;1.42;0.73;;;;;;;11.25;100.00;100432.94;4998599;28;20045;-87
2023/08/09 02:11:57;;;;;;;0.65;0.65;;;;;;;11.21;100.00;100426.91;5001966;28;20049;-85
2023/08/09 02:14:28;;;;;;;3.13;0.60;;;;;;;11.14;100.00;100430.47;5006965;28;20042;-86
2023/08/09 02:16:58;;;;;;;1.10;1.02;;;;;;;11.05;100.00;100428.84;5008851;28;20131;-88
2023/08/09 02:19:25;;;;;;;1.00;0.85;;;;;;;10.92;100.00;100420.34;5004682;28;20077;-86
2023/08/09 02:21:54;;;;;;;1.15;1.00;;;;;;;10.87;100.00;100424.78;5039033;28;20041;-88
2023/08/09 02:24:23;;;;;;;1.33;0.90;;;;;;;10.82;100.00;100425.69;5038677;28;20076;-86
2023/08/09 02:26:50;;;;;;;0.80;0.80;;;;;;;10.72;100.00;100424.97;5011879;28;20046;-88
2023/08/09 02:29:17;;;;;;;1.27;0.82;;;;;;;10.64;100.00;100416.34;4977037;28;20038;-85
2023/08/09 02:31:44;;;;;;;2.95;1.40;;;;;;;10.60;100.00;100415.53;5011171;28;20070;-88
2023/08/09 02:34:11;;;;;;;3.20;1.20;;;;;;;10.57;100.00;100426.91;5024824;28;20085;-85
2023/08/09 02:36:42;;;;;;;3.33;1.15;;;;;;;10.57;100.00;100426.03;5006226;28;20038;-86
2023/08/09 02:39:09;;;;;;;1.40;1.30;;;;;;;10.51;100.00;100428.75;5004757;28;20049;-87
2023/08/09 02:41:37;;;;;;;6.47;1.13;;;;;;;10.44;100.00;100433.16;5005819;28;20101;-87
2023/08/09 02:44:07;;;;;;;1.00;1.00;;;;;;;10.38;100.00;100430.63;5019219;28;20126;-87
2023/08/09 02:46:34;;;;;;;3.28;1.40;;;;;;;10.32;100.00;100428.91;4989415;28;20104;-86
2023/08/09 02:49:00;;;;;;;1.25;1.02;;;;;;;10.32;100.00;100444.59;5008654;28;20053;-87
2023/08/09 02:51:27;;;;;;;2.70;1.65;;;;;;;10.31;100.00;100444.63;5006201;28;20042;-86
2023/08/09 02:54:07;;;;;;;1.52;1.20;;;;;;;10.29;100.00;100443.78;5006407;28;20116;-88
2023/08/09 02:56:36;;;;;;;3.83;1.58;;;;;;;10.27;100.00;100442.06;5022585;28;20064;-86
2023/08/09 02:59:03;;;;;;;3.08;1.90;;;;;;;10.23;100.00;100448.22;5007318;28;20136;-87
2023/08/09 03:01:31;;;;;;;4.10;1.58;;;;;;;10.21;100.00;100452.56;5010065;28;20513;-87
2023/08/09 03:04:03;;;;;;;3.28;1.45;;;;;;;10.19;100.00;100459.56;5025829;28;20118;-86
2023/08/09 03:06:33;;;;;;;2.13;1.67;;;;;;;10.17;100.00;100452.63;4999911;28;20101;-89
2023/08/09 03:09:01;;;;;;;1.95;1.17;;;;;;;10.16;100.00;100457.00;5012764;28;20077;-86
2023/08/09 03:11:28;;;;;;;1.83;1.67;;;;;;;10.14;100.00;100457.88;5005381;28;20131;-87
2023/08/09 03:13:55;;;;;;;2.70;2.08;;;;;;;10.10;100.00;100459.66;5009148;28;20054;-86
2023/08/09 03:16:22;;;;;;;2.60;2.03;;;;;;;10.07;100.00;100464.94;4990363;28;20053;-88
2023/08/09 03:18:50;;;;;;;2.55;1.45;;;;;;;10.07;100.00;100463.16;5024734;28;20060;-88
2023/08/09 03:21:17;;;;;;;2.80;1.92;;;;;;;10.09;100.00;100465.81;4994267;28;20042;-88
2023/08/09 03:23:44;;;;;;;2.72;2.05;;;;;;;10.11;100.00;100471.88;4993282;28;20050;-88
2023/08/09 03:26:11;;;;;;;7.50;1.90;;;;;;;10.08;100.00;100474.53;5036321;28;20069;-89
2023/08/09 03:28:38;;;;;;;4.22;1.85;;;;;;;10.12;100.00;100471.00;5023660;28;20133;-87
2023/08/09 03:31:07;;;;;;;2.40;1.67;;;;;;;10.13;100.00;100483.19;5045075;28;20053;-90
2023/08/09 03:33:34;;;;;;;5.05;2.53;;;;;;;10.12;100.00;100483.19;5030567;28;20096;-91
2023/08/09 03:36:02;;;;;;;5.28;2.08;;;;;;;10.09;100.00;100484.97;4989239;28;20049;-86
2023/08/09 03:38:31;;;;;;;2.92;2.05;;;;;;;10.12;100.00;100491.91;4996478;28;20057;-86
2023/08/09 03:40:59;;;;;;;6.43;2.83;;;;;;;10.12;100.00;100491.91;5010145;28;20052;-88
2023/08/09 03:43:26;;;;;;;3.13;2.63;;;;;;;10.16;100.00;100493.59;5030915;28;20103;-86
2023/08/09 03:45:55;;;;;;;5.30;2.45;;;;;;;10.14;100.00;100502.34;5002703;28;20492;-89
2023/08/09 03:48:22;;;;;;;3.83;2.42;;;;;;;10.15;100.00;100504.09;5004863;28;20049;-88
2023/08/09 03:51:04;;;;;;;2.42;2.05;;;;;;;10.14;100.00;100507.59;5000279;28;20564;-88
2023/08/09 03:53:33;;;;;;;2.13;1.95;;;;;;;10.15;100.00;100504.94;5009130;28;20060;-87
2023/08/09 03:55:59;;;;;;;2.45;2.22;;;;;;;10.15;100.00;100517.19;4998906;28;20057;-89
2023/08/09 03:58:26;;;;;;;4.25;2.40;;;;;;;10.15;100.00;100511.94;5017345;28;20058;-88
2023/08/09 04:00:54;;;;;;;8.10;3.47;;;;;;;10.19;100.00;100516.25;4993928;28;20052;-86
2023/08/09 04:03:25;;;;;;;4.95;2.97;;;;;;;10.21;100.00;100525.81;5027830;28;20045;-87
2023/08/09 04:06:02;;;;;;;5.05;2.45;;;;;;;10.24;100.00;100517.09;5011961;28;20045;-88
2023/08/09 04:08:34;;;;;;;4.95;2.78;;;;;;;10.27;100.00;100530.13;5008192;28;20508;-88
2023/08/09 04:11:04;;;;;;;3.53;3.15;;;;;;;10.23;100.00;100531.94;5010359;28;20565;-85
2023/08/09 04:13:31;;;;;;;3.80;3.22;;;;;;;10.27;100.00;100528.38;5020795;28;20077;-86
2023/08/09 04:16:06;;;;;;;5.10;3.13;;;;;;;10.27;100.00;100525.78;5010137;28;20053;-86
2023/08/09 04:18:33;;;;;;;4.90;3.80;;;;;;;10.30;100.00;100539.69;4993993;28;20054;-86
2023/08/09 04:20:59;;;;;;;3.95;3.20;;;;;;;10.26;100.00;100536.25;4993061;28;20582;-88
2023/08/09 04:23:26;;;;;;;5.97;3.38;;;;;;;10.29;100.00;100540.59;5008409;28;20053;-90
2023/08/09 04:25:57;;;;;;;4.32;3.45;;;;;;;10.33;100.00;100537.06;5000892;28;20410;-88
2023/08/09 04:28:24;;;;;;;3.30;3.00;;;;;;;10.34;100.00;100550.13;5003397;28;20561;-86
2023/08/09 04:30:58;;;;;;;6.10;3.70;;;;;;;10.44;100.00;100548.31;5020853;28;20054;-86
2023/08/09 04:33:27;;;;;;;10.07;3.92;;;;;;;10.46;100.00;100551.78;5024080;28;20125;-88
2023/08/09 04:35:54;;;;;;;4.70;3.65;;;;;;;10.47;100.00;100555.25;5006390;28;20054;-85
2023/08/09 04:38:20;;;;;;;5.03;3.45;;;;;;;10.46;100.00;100554.41;5005077;28;20577;-85
2023/08/09 04:40:50;;;;;;;5.45;3.90;;;;;;;10.45;100.00;100550.03;5007680;28;20050;-86
2023/08/09 04:43:17;;;;;;;7.20;3.42;;;;;;;10.45;100.00;100557.91;4988488;28;20104;-87
2023/08/09 04:45:44;;;;;;;6.57;4.03;;;;;;;10.46;100.00;100562.25;5005225;28;20459;-86
2023/08/09 04:48:26;;;;;;;5.28;4.22;;;;;;;10.47;100.00;100568.34;5007848;28;20410;-89
2023/08/09 04:50:53;;;;;;;4.25;3.85;;;;;;;10.45;100.00;100563.13;5006013;28;20046;-87
2023/08/09 04:53:20;;;;;;;4.88;3.55;;;;;;;10.48;100.00;100562.22;5015380;28;20121;-87
2023/08/09 04:55:47;;;;;;;8.52;4.65;;;;;;;10.48;100.00;100563.13;5002872;28;20050;-88
2023/08/09 04:58:18;;;;;;;5.10;4.13;;;;;;;10.49;100.00;100567.44;5028129;28;20042;-87
2023/08/09 05:00:44;;;;;;;4.20;3.78;;;;;;;10.52;100.00;100564.81;5001771;28;20104;-88
2023/08/09 05:03:11;;;;;;;7.50;4.88;;;;;;;10.57;100.00;100564.75;4993373;28;20050;-88
2023/08/09 05:05:38;;;;;;;4.40;4.00;;;;;;;10.55;100.00;100562.16;5028621;28;20046;-89
2023/08/09 05:08:11;;;;;;;5.97;4.45;;;;;;;10.64;100.00;100569.06;4999417;28;20057;-87
2023/08/09 05:10:38;;;;;;;9.32;4.93;;;;;;;10.66;100.00;100576.88;5005144;28;20057;-88
2023/08/09 05:13:05;;;;;;;9.23;5.03;;;;;;;10.71;100.00;100578.56;5018143;28;20050;-88
2023/08/09 05:15:34;;;;;;;8.55;5.10;;;;;;;10.73;100.00;100573.34;5005360;28;20072;-87
2023/08/09 05:18:00;;;;;;;8.35;5.25;;;;;;;10.76;100.00;100581.13;5018675;28;20041;-86
2023/08/09 05:20:27;;;;;;;8.90;5.03;;;;;;;10.79;100.00;100580.25;4994359;28;20045;-86
2023/08/09 05:22:54;;;;;;;5.28;4.55;;;;;;;10.87;100.00;100583.63;4995114;28;20130;-86
2023/08/09 05:25:22;;;;;;;7.82;4.28;;;;;;;10.96;100.00;100580.91;4987454;28;20057;-88
2023/08/09 05:27:50;;;;;;;8.93;5.13;;;;;;;11.03;100.00;100574.72;5026872;28;20113;-85
2023/08/09 05:30:19;;;;;;;6.93;5.13;;;;;;;11.08;100.00;100586.00;4987632;28;20056;-90
2023/08/09 05:32:51;;;;;;;5.15;4.40;;;;;;;11.12;100.00;100594.72;5022138;28;20061;-89
2023/08/09 05:35:18;;;;;;;6.32;4.47;;;;;;;11.14;100.00;100585.06;5007766;28;20102;-87
2023/08/09 05:37:47;;;;;;;5.93;4.13;;;;;;;11.19;100.00;100592.88;5008382;28;20034;-88
2023/08/09 05:40:14;;;;;;;8.18;5.28;;;;;;;11.27;100.00;100592.78;5012137;28;20052;-86
2023/08/09 05:42:46;;;;;;;6.40;4.68;;;;;;;11.31;100.00;100595.31;5008275;28;20042;-88
2023/08/09 05:45:13;;;;;;;5.30;3.55;;;;;;;11.34;100.00;100603.16;4993612;28;20041;-91
2023/08/09 05:47:40;;;;;;;8.52;4.97;;;;;;;11.43;100.00;100594.28;5028357;28;20042;-86
2023/08/09 05:50:09;;;;;;;8.80;4.95;;;;;;;11.48;100.00;100594.25;5005271;28;20041;-87
2023/08/09 05:52:36;;;;;;;5.97;3.63;;;;;;;11.56;100.00;100597.63;5011230;28;20430;-89
2023/08/09 05:55:03;;;;;;;6.45;3.92;;;;;;;11.64;100.00;100605.38;4991409;28;20046;-89
2023/08/09 05:57:36;;;;;;;4.70;3.88;;;;;;;11.68;100.00;100609.69;5011349;28;20080;-90
2023/08/09 06:00:04;;;;;;;5.43;3.28;;;;;;;11.74;100.00;100609.59;4981912;28;20038;-88
2023/08/09 06:02:33;;;;;;;6.28;3.28;;;;;;;11.81;100.00;100606.00;5030852;28;20038;-89
2023/08/09 06:05:01;;;;;;;5.45;4.22;;;;;;;11.89;100.00;100603.28;5034668;28;20057;-87
2023/08/09 06:07:28;;;;;;;4.63;3.42;;;;;;;11.95;100.00;100604.94;4999728;28;20089;-89
2023/08/09 06:09:57;;;;;;;6.25;3.45;;;;;;;12.02;100.00;100622.31;5010192;28;20538;-87
2023/08/09 06:12:23;;;;;;;7.10;3.72;;;;;;;12.05;100.00;100628.41;5010222;28;20045;-87
2023/08/09 06:14:50;;;;;;;4.95;4.07;;;;;;;12.12;100.00;100623.06;5027721;28;20046;-88
2023/08/09 06:17:17;;;;;;;6.20;2.80;;;;;;;12.19;100.00;100625.56;5004699;28;20050;-88
2023/08/09 06:19:46;;;;;;;6.18;2.80;;;;;;;12.25;100.00;100624.59;5019090;28;20045;-87
2023/08/09 06:22:15;;;;;;;6.22;2.53;;;;;;;12.33;100.00;100621.84;5007242;28;20053;-88
2023/08/09 06:24:41;;;;;;;3.05;2.78;;;;;;;12.43;100.00;100623.41;4989536;28;20114;-88
2023/08/09 06:27:08;;;;;;;5.60;3.10;;;;;;;12.50;100.00;100632.06;5016269;28;20052;-87
2023/08/09 06:29:35;;;;;;;3.35;2.53;;;;;;;12.51;100.00;100632.03;5009283;28;20082;-88
2023/08/09 06:32:02;;;;;;;3.85;2.60;;;;;;;12.63;100.00;100638.81;5002113;28;20050;-87
2023/08/09 06:34:28;;;;;;;3.30;2.17;;;;;;;12.68;100.00;100639.59;5003550;28;20046;-87
2023/08/09 06:36:55;;;;;;;10.88;2.53;;;;;;;12.75;100.00;100635.13;4992908;28;20524;-87
2023/08/09 06:39:22;;;;;;;3.85;2.28;;;;;;;12.82;100.00;100641.13;5022821;28;20052;-86
2023/08/09 06:41:51;;;;;;;3.50;2.20;;;;;;;12.89;100.00;100651.50;5000969;28;20042;-86
2023/08/09 06:44:18;;;;;;;2.95;2.35;;;;;;;12.97;100.00;100647.84;5007183;28;20555;-88
2023/08/09 06:46:45;;;;;;;2.58;2.33;;;;;;;13.01;100.00;100650.41;4995047;28;20051;-87
2023/08/09 06:49:11;;;;;;;2.08;1.85;;;;;;;13.11;100.00;100658.97;5007960;28;20048;-88
2023/08/09 06:51:39;;;;;;;4.05;1.92;;;;;;;13.13;100.00;100661.56;5007759;28;20073;-87
2023/08/09 06:54:12;;;;;;;4.00;2.10;;;;;;;13.19;100.00;100658.81;4993642;28;20509;-88
2023/08/09 06:56:39;;;;;;;2.47;1.98;;;;;;;13.27;100.00;100667.44;5005591;28;20141;-88
2023/08/09 06:59:06;;;;;;;3.13;1.70;;;;;;;13.38;100.00;100675.97;4993246;28;20104;-90
2023/08/09 07:01:33;;;;;;;2.92;1.80;;;;;;;13.50;100.00;100674.00;5006863;28;21219;-88
2023/08/09 07:04:02;;;;;;;1.67;1.50;;;;;;;13.68;100.00;100684.13;5010117;28;20042;-88
2023/08/09 07:06:28;;;;;;;2.92;1.45;;;;;;;14.02;100.00;100690.44;5001607;28;20448;-89
2023/08/09 07:08:55;;;;;;;1.55;1.35;;;;;;;14.35;100.00;100688.78;5004622;28;20437;-87
2023/08/09 07:11:22;;;;;;;3.90;1.50;;;;;;;14.82;98.25;100679.75;5006425;28;20128;-87
2023/08/09 07:13:49;;;;;;;2.70;1.83;;;;;;;15.29;95.75;100690.78;4986856;28;20409;-87
2023/08/09 07:16:16;;;;;;;4.60;1.80;;;;;;;15.79;94.40;100692.00;5019843;28;20080;-88
2023/08/09 07:18:42;;;;;;;5.10;1.88;;;;;;;16.31;91.77;100697.44;4993335;28;20046;-87
2023/08/09 07:21:09;;;;;;;1.63;1.17;;;;;;;16.68;88.98;100694.47;5005947;28;20092;-87
2023/08/09 07:23:36;;;;;;;3.33;1.00;;;;;;;16.84;87.18;100701.88;5003723;28;20077;-87
2023/08/09 07:26:02;;;;;;;3.67;0.82;;;;;;;16.87;85.28;100693.84;5029033;28;20056;-89
2023/08/09 07:28:29;;;;;;;5.35;1.23;;;;;;;17.19;84.51;100684.81;5011708;28;20046;-86
2023/08/09 07:30:56;;;;;;;2.45;1.00;;;;;;;17.45;83.92;100700.66;5009183;28;20038;-85
2023/08/09 07:33:22;;;;;;;1.42;0.80;;;;;;;17.66;81.54;100706.91;5001859;28;20038;-88
2023/08/09 07:35:52;;;;;;;2.13;0.80;;;;;;;17.90;80.49;100709.53;5015593;28;20046;-87
2023/08/09 07:38:19;;;;;;;7.32;1.30;;;;;;;17.97;80.78;100708.44;5019235;28;20125;-87
2023/08/09 07:40:45;;;;;;;1.52;0.57;;;;;;;18.19;80.63;100709.28;5020095;28;20046;-87
2023/08/09 07:43:12;;;;;;;1.80;0.98;;;;;;;18.37;77.88;100706.84;5002206;28;20049;-87
2023/08/09 07:45:42;;;;;;;2.13;1.05;;;;;;;18.54;76.96;100713.22;5007154;28;20073;-86
2023/08/09 07:48:10;;;;;;;1.17;1.08;;;;;;;18.82;76.63;100710.28;5010312;28;20045;-85
2023/08/09 07:50:37;;;;;;;1.52;1.38;;;;;;;19.25;73.58;100710.25;5010383;28;20041;-86
2023/08/09 07:53:04;;;;;;;1.42;0.80;;;;;;;19.82;72.79;100708.56;5016185;28;20129;-86
2023/08/09 07:55:34;;;;;;;1.88;0.80;;;;;;;20.14;67.10;100721.25;5010537;28;20061;-89
2023/08/09 07:58:03;;;;;;;1.70;0.65;;;;;;;20.25;67.96;100710.13;5011455;28;20124;-87
2023/08/09 08:00:29;;;;;;;1.80;0.85;;;;;;;20.41;64.72;100716.38;5025414;28;20509;-86
2023/08/09 08:02:56;;;;;;;2.00;0.80;;;;;;;20.52;65.39;100712.34;5026931;28;20042;-87
2023/08/09 08:05:23;;;;;;;4.65;0.95;;;;;;;20.65;62.56;100721.44;5010770;28;20121;-86
2023/08/09 08:07:49;;;;;;;0.82;0.45;;;;;;;20.23;65.17;100726.09;5011911;28;20161;-87
2023/08/09 08:10:16;;;;;;;2.25;0.85;;;;;;;20.41;62.55;100736.81;4994325;28;20149;-87
2023/08/09 08:12:45;;;;;;;2.85;0.80;;;;;;;20.52;63.55;100726.50;5016142;28;20048;-85
2023/08/09 08:15:13;;;;;;;4.05;0.88;;;;;;;21.17;60.96;100733.88;5013894;28;20038;-86
2023/08/09 08:17:42;;;;;;;1.40;1.20;;;;;;;21.70;57.05;100742.66;4992075;28;20129;-87
2023/08/09 08:20:15;;;;;;;2.05;0.80;;;;;;;22.33;57.14;100738.31;4999238;28;20137;-86
2023/08/09 08:22:50;;;;;;;3.72;0.98;;;;;;;22.80;55.41;100739.19;5009558;28;20054;-86
2023/08/09 08:25:19;;;;;;;0.68;0.40;;;;;;;22.51;56.24;100735.56;5029003;28;20096;-85
2023/08/09 08:27:46;;;;;;;1.80;0.80;;;;;;;22.01;55.80;100738.31;5005374;28;20155;-85
2023/08/09 08:30:17;;;;;;;1.50;0.68;;;;;;;21.79;56.59;100735.97;5002468;28;20046;-87
2023/08/09 08:32:48;;;;;;;2.63;0.93;;;;;;;21.79;57.00;100744.81;5025662;28;20043;-88
2023/08/09 08:35:20;;;;;;;0.80;0.60;;;;;;;21.95;55.99;100736.88;5035941;28;20077;-86
2023/08/09 08:37:48;;;;;;;1.98;0.63;;;;;;;22.96;52.29;100734.66;5011382;28;20041;-86
2023/08/09 08:40:21;;;;;;;1.50;0.65;;;;;;;22.72;53.07;100746.78;5032440;28;20042;-87
2023/08/09 08:42:48;;;;;;;1.08;0.45;;;;;;;22.45;53.00;100750.97;5011688;28;20501;-86
2023/08/09 08:45:16;;;;;;;2.22;0.60;;;;;;;21.84;54.22;100757.91;5010115;28;20153;-88
2023/08/09 08:47:45;;;;;;;1.60;0.47;;;;;;;22.16;52.72;100749.91;4993152;28;20108;-87
2023/08/09 08:50:15;;;;;;;2.35;0.90;;;;;;;23.16;49.70;100748.66;5003913;28;20046;-88
2023/08/09 08:52:48;;;;;;;5.07;1.02;;;;;;;23.94;47.21;100748.31;5013146;28;20062;-85
2023/08/09 08:55:16;;;;;;;1.95;0.50;;;;;;;24.16;46.72;100744.28;4995108;28;20141;-85
2023/08/09 08:57:46;;;;;;;0.77;0.40;;;;;;;23.09;48.53;100745.47;5004795;28;20382;-86
2023/08/09 09:00:16;;;;;;;1.08;0.88;;;;;;;22.18;51.63;100748.03;5021658;28;20092;-86
2023/08/09 09:02:45;;;;;;;2.50;0.60;;;;;;;21.99;51.20;100745.53;4998977;28;20125;-86
2023/08/09 09:05:19;;;;;;;2.35;0.70;;;;;;;22.19;51.53;100749.78;5003204;28;20046;-86
2023/08/09 09:07:49;;;;;;;2.25;0.60;;;;;;;22.92;49.28;100751.81;5009411;28;20129;-85
2023/08/09 09:10:16;;;;;;;3.35;0.68;;;;;;;23.68;46.46;100741.91;4991215;28;20112;-87
2023/08/09 09:12:44;;;;;;;1.77;0.45;;;;;;;24.26;45.24;100750.75;4993867;28;20065;-85
2023/08/09 09:15:11;;;;;;;1.08;0.45;;;;;;;24.13;44.80;100746.28;4993782;28;20046;-89
2023/08/09 09:17:44;;;;;;;2.53;1.02;;;;;;;22.91;47.58;100763.44;5013818;28;20929;-85
2023/08/09 09:20:23;;;;;;;2.20;0.47;;;;;;;;;;5007848;28;20175;-87
2023/08/09 09:22:54;;;;;;;0.93;0.70;;;;;;;22.56;50.08;100749.50;5010089;28;20048;-86
2023/08/09 09:25:22;;;;;;;2.90;0.40;;;;;;;23.21;48.18;100753.75;5022314;28;20045;-86
2023/08/09 09:27:54;;;;;;;3.28;0.47;;;;;;;24.65;45.00;100753.59;4986857;28;20049;-86
2023/08/09 09:30:24;;;;;;;2.97;0.40;;;;;;;26.24;38.24;100742.56;5021113;28;20042;-86
2023/08/09 09:32:51;;;;;;;2.05;0.60;;;;;;;25.87;39.85;100747.88;5004086;28;20052;-85
2023/08/09 09:35:23;;;;;;;0.50;0.30;;;;;;;25.33;41.06;100751.69;5008366;28;20054;-88
2023/08/09 09:37:51;;;;;;;5.10;3.85;;;;;;;24.06;44.15;100761.88;5003334;28;20033;-84
2023/08/09 09:40:31;;;;;;;1.10;0.65;;;;;;;22.88;45.51;100763.63;5008140;28;20065;-87
2023/08/09 09:42:59;;;;;;;1.33;0.47;;;;;;;23.07;46.87;100766.06;5037921;28;20037;-88
2023/08/09 09:45:31;;;;;;;0.68;0.30;;;;;;;24.76;41.50;100761.75;5027866;28;20031;-85
2023/08/09 09:48:01;;;;;;;2.33;0.40;;;;;;;25.82;39.22;100757.25;5007111;28;20129;-84
2023/08/09 09:50:31;;;;;;;1.75;0.77;;;;;;;25.08;40.13;100755.19;5015537;28;20046;-85
2023/08/09 09:52:58;;;;;;;3.97;1.98;;;;;;;23.27;43.46;100761.34;5011189;28;20046;-84
2023/08/09 09:55:28;;;;;;;1.08;0.50;;;;;;;22.72;45.42;100770.81;5014260;28;20158;-86
2023/08/09 09:57:57;;;;;;;0.65;0.40;;;;;;;23.88;42.21;100764.72;5007183;28;20142;-87
2023/08/09 10:00:27;;;;;;;3.70;0.65;;;;;;;25.09;39.42;100762.25;4992223;28;20042;-86
2023/08/09 10:02:55;;;;;;;1.55;0.50;;;;;;;26.08;37.68;100764.28;5020102;28;20050;-85
2023/08/09 10:05:35;;;;;;;0.95;0.40;;;;;;;27.74;34.65;100754.47;5008597;28;20050;-87
2023/08/09 10:08:08;;;;;;;1.77;0.68;;;;;;;28.94;33.40;100757.25;4999992;28;20046;-86
2023/08/09 10:10:38;;;;;;;1.13;0.50;;;;;;;29.58;31.21;100751.84;5016750;28;20655;-84
2023/08/09 10:13:09;;;;;;;2.70;0.40;;;;;;;29.17;31.32;100762.53;5004288;28;20473;-85
2023/08/09 10:15:40;;;;;;;0.43;0.40;;;;;;;29.16;31.43;100763.50;5012198;28;20062;-85
2023/08/09 10:18:17;;;;;;;1.65;0.75;;;;;;;27.61;31.56;100780.66;5012570;28;20046;-84
2023/08/09 10:20:51;;;;;;;3.33;0.45;;;;;;;26.22;34.71;100786.59;4990177;28;20512;-84
2023/08/09 10:23:28;;;;;;;1.98;0.43;;;;;;;27.73;32.65;100780.53;5006205;28;20073;-89
2023/08/09 10:25:59;;;;;;;3.58;0.50;;;;;;;28.76;31.58;100766.91;5004663;28;20496;-87
2023/08/09 10:28:42;;;;;;;1.50;0.45;;;;;;;27.26;32.37;100774.34;5008487;28;20046;-84
2023/08/09 10:31:13;;;;;;;;;;;;;;;25.78;34.03;100787.94;5019290;28;20050;-87
2023/08/09 10:34:09;;;;;;;2.08;0.25;;;;;;;26.87;32.70;100781.78;5026556;28;19925;-85
2023/08/09 10:36:36;;;;;;;0.38;0.35;;;;;;;26.66;33.03;100778.88;5002692;28;20046;-86
2023/08/09 10:39:16;;;;;;;0.30;0.30;;;;;;;25.05;36.03;100784.84;5002205;28;20125;-84
2023/08/09 10:42:08;;;;;;;2.92;0.32;;;;;;;24.01;38.12;100796.91;4995310;28;20107;-87
2023/08/09 10:44:48;;;;;;;0.82;0.30;;;;;;;22.87;40.25;100793.09;5006134;28;20054;-87
2023/08/09 10:47:27;;;;;;;2.03;0.80;;;;;;;23.22;39.67;100791.03;4998062;28;20042;-85
2023/08/09 10:49:53;;;;;;;3.25;0.60;;;;;;;24.77;36.38;100781.38;4986505;28;20466;-85
2023/08/09 10:52:22;;;;;;;3.78;0.68;;;;;;;25.17;35.03;100785.84;5026525;28;20056;-85
2023/08/09 10:55:25;;;;;;;1.60;0.68;;;;;;;24.40;36.86;100789.97;4990781;28;20422;-85
2023/08/09 10:57:54;;;;;;;4.25;1.05;;;;;;;24.70;36.68;100790.75;4992362;28;20050;-85
2023/08/09 11:00:23;;;;;;;1.58;0.40;;;;;;;26.27;33.32;100779.06;5017052;28;20428;-88
2023/08/09 11:02:53;;;;;;;2.92;0.90;;;;;;;25.70;33.45;100793.84;5009656;28;20084;-86
2023/08/09 11:05:20;;;;;;;0.20;0.20;;;;;;;25.30;34.40;100794.75;5005603;28;20137;-86
2023/08/09 11:07:57;;;;;;;0.60;0.40;;;;;;;24.82;35.12;100791.75;5003752;28;20038;-85
2023/08/09 11:10:42;;;;;;;0.85;0.47;;;;;;;25.77;33.54;100797.78;5013521;28;20065;-85
2023/08/09 11:13:18;;;;;;;4.88;0.80;;;;;;;27.03;31.36;100790.41;5006529;28;20069;-87
2023/08/09 11:15:48;;;;;;;0.57;0.28;;;;;;;26.01;32.87;100805.91;5031181;28;20042;-85
2023/08/09 11:18:16;;;;;;;2.75;0.80;;;;;;;24.92;34.52;100795.53;5001910;28;20038;-86
2023/08/09 11:20:44;;;;;;;0.68;0.40;;;;;;;24.01;36.73;100799.59;5024491;28;20038;-87
2023/08/09 11:23:11;;;;;;;1.52;0.43;;;;;;;23.33;37.55;100806.41;5018797;28;20046;-86
2023/08/09 11:25:39;;;;;;;0.90;0.30;;;;;;;23.40;37.08;100804.22;5013246;28;20353;-85
2023/08/09 11:28:14;;;;;;;0.75;0.32;;;;;;;23.18;37.84;100807.31;4994913;28;20138;-86
2023/08/09 11:30:41;;;;;;;0.85;0.30;;;;;;;24.48;35.97;100799.31;4993744;28;20727;-86
2023/08/09 11:33:11;;;;;;;0.38;0.30;;;;;;;26.39;33.05;100804.97;5021854;28;20046;-84